sensor_id;sensor_type;location;lat;lon;timestamp;pressure;altitude;pressure_sealevel;temperature;humidity
48774;BME280;34576;0.000;0.000;2023-01-29T00:00:12;97509.38;;;16.39;67.06
48774;BME280;34576;0.000;0.000;2023-01-29T00:07:12;97507.13;;;16.31;66.56
48774;BME280;34576;0.000;0.000;2023-01-29T00:14:13;97509.03;;;16.36;66.97
48774;BME280;34576;0.000;0.000;2023-01-29T00:21:14;97511.88;;;16.46;67.53
48774;BME280;34576;0.000;0.000;2023-01-29T00:28:15;97507.41;;;16.52;67.61
48774;BME280;34576;0.000;0.000;2023-01-29T00:35:15;97508.47;;;16.51;68.26
48774;BME280;34576;0.000;0.000;2023-01-29T00:42:16;97513.84;;;16.56;68.74
48774;BME280;34576;0.000;0.000;2023-01-29T00:49:34;97517.81;;;16.53;69.02
48774;BME280;34576;0.000;0.000;2023-01-29T00:56:35;97509.84;;;16.53;69.35
48774;BME280;34576;0.000;0.000;2023-01-29T01:03:35;97497.78;;;16.68;69.18
48774;BME280;34576;0.000;0.000;2023-01-29T01:10:41;97498.22;;;16.60;69.64
48774;BME280;34576;0.000;0.000;2023-01-29T01:17:41;97495.81;;;16.58;70.51
48774;BME280;34576;0.000;0.000;2023-01-29T01:24:42;97504.72;;;16.69;70.85
48774;BME280;34576;0.000;0.000;2023-01-29T01:31:42;97499.41;;;16.69;71.01
48774;BME280;34576;0.000;0.000;2023-01-29T01:38:42;97509.22;;;16.68;71.22
48774;BME280;34576;0.000;0.000;2023-01-29T01:45:46;97512.00;;;16.79;71.97
48774;BME280;34576;0.000;0.000;2023-01-29T01:52:50;97505.88;;;16.78;72.45
48774;BME280;34576;0.000;0.000;2023-01-29T01:59:54;97509.66;;;16.82;72.32
48774;BME280;34576;0.000;0.000;2023-01-29T02:06:55;97497.03;;;16.89;72.65
48774;BME280;34576;0.000;0.000;2023-01-29T02:14:17;97494.97;;;16.97;73.09
48774;BME280;34576;0.000;0.000;2023-01-29T02:28:46;97504.56;;;16.98;73.86
48774;BME280;34576;0.000;0.000;2023-01-29T02:35:51;97507.75;;;17.00;73.71
48774;BME280;34576;0.000;0.000;2023-01-29T02:42:57;97503.56;;;17.04;73.39
48774;BME280;34576;0.000;0.000;2023-01-29T02:57:24;97508.13;;;17.08;74.11
48774;BME280;34576;0.000;0.000;2023-01-29T03:04:28;97505.59;;;17.19;73.80
48774;BME280;34576;0.000;0.000;2023-01-29T03:11:34;97518.69;;;17.25;74.00
48774;BME280;34576;0.000;0.000;2023-01-29T03:18:40;97532.91;;;17.14;75.53
48774;BME280;34576;0.000;0.000;2023-01-29T03:25:45;97528.47;;;17.20;75.49
48774;BME280;34576;0.000;0.000;2023-01-29T03:33:05;97528.53;;;17.25;76.22
48774;BME280;34576;0.000;0.000;2023-01-29T03:40:07;97531.19;;;17.25;76.54
48774;BME280;34576;0.000;0.000;2023-01-29T03:47:53;97527.16;;;17.22;76.52
48774;BME280;34576;0.000;0.000;2023-01-29T04:01:41;97514.78;;;17.33;77.16
48774;BME280;34576;0.000;0.000;2023-01-29T04:08:46;97527.00;;;17.34;77.18
48774;BME280;34576;0.000;0.000;2023-01-29T04:15:55;97527.84;;;17.35;76.87
48774;BME280;34576;0.000;0.000;2023-01-29T04:23:21;97528.69;;;17.40;76.45
48774;BME280;34576;0.000;0.000;2023-01-29T04:37:46;97521.56;;;17.46;76.40
48774;BME280;34576;0.000;0.000;2023-01-29T04:44:53;97518.66;;;17.48;76.34
48774;BME280;34576;0.000;0.000;2023-01-29T04:51:59;97522.72;;;17.55;76.22
48774;BME280;34576;0.000;0.000;2023-01-29T04:59:05;97514.47;;;17.57;76.03
48774;BME280;34576;0.000;0.000;2023-01-29T05:06:06;97508.16;;;17.63;75.93
48774;BME280;34576;0.000;0.000;2023-01-29T05:13:09;97506.56;;;17.62;76.06
48774;BME280;34576;0.000;0.000;2023-01-29T05:20:10;97517.44;;;17.60;76.53
48774;BME280;34576;0.000;0.000;2023-01-29T05:27:19;97524.84;;;17.58;76.75
48774;BME280;34576;0.000;0.000;2023-01-29T05:34:38;97530.25;;;17.64;76.58
48774;BME280;34576;0.000;0.000;2023-01-29T05:41:38;97530.66;;;17.50;77.13
48774;BME280;34576;0.000;0.000;2023-01-29T05:48:39;97525.72;;;17.64;74.46
48774;BME280;34576;0.000;0.000;2023-01-29T05:55:42;97532.31;;;17.56;73.91
48774;BME280;34576;0.000;0.000;2023-01-29T06:02:42;97553.34;;;17.58;73.75
48774;BME280;34576;0.000;0.000;2023-01-29T06:09:43;97553.59;;;17.56;73.03
48774;BME280;34576;0.000;0.000;2023-01-29T06:16:43;97549.88;;;17.57;73.73
48774;BME280;34576;0.000;0.000;2023-01-29T06:23:43;97526.91;;;17.51;74.14
48774;BME280;34576;0.000;0.000;2023-01-29T06:30:44;97507.56;;;17.56;73.35
48774;BME280;34576;0.000;0.000;2023-01-29T06:37:44;97502.00;;;17.57;73.20
48774;BME280;34576;0.000;0.000;2023-01-29T06:44:44;97518.09;;;17.73;73.52
48774;BME280;34576;0.000;0.000;2023-01-29T06:51:45;97539.88;;;17.70;73.95
48774;BME280;34576;0.000;0.000;2023-01-29T06:58:45;97547.31;;;17.68;73.13
48774;BME280;34576;0.000;0.000;2023-01-29T07:05:49;97563.78;;;17.65;71.05
48774;BME280;34576;0.000;0.000;2023-01-29T07:12:49;97565.78;;;17.52;70.23
48774;BME280;34576;0.000;0.000;2023-01-29T07:19:50;97576.41;;;17.52;68.77
48774;BME280;34576;0.000;0.000;2023-01-29T07:26:50;97594.78;;;17.54;68.29
48774;BME280;34576;0.000;0.000;2023-01-29T07:33:51;97598.03;;;17.56;68.83
48774;BME280;34576;0.000;0.000;2023-01-29T07:40:51;97619.84;;;13.09;49.28
48774;BME280;34576;0.000;0.000;2023-01-29T07:47:52;97631.50;;;9.96;45.76
48774;BME280;34576;0.000;0.000;2023-01-29T07:54:53;97624.88;;;10.07;42.01
48774;BME280;34576;0.000;0.000;2023-01-29T08:01:54;97633.97;;;9.36;43.09
48774;BME280;34576;0.000;0.000;2023-01-29T08:08:54;97640.56;;;9.80;41.20
48774;BME280;34576;0.000;0.000;2023-01-29T08:16:02;97661.69;;;10.27;42.79
48774;BME280;34576;0.000;0.000;2023-01-29T08:23:04;97643.75;;;15.01;48.54
48774;BME280;34576;0.000;0.000;2023-01-29T08:30:05;97665.78;;;15.54;51.55
48774;BME280;34576;0.000;0.000;2023-01-29T08:37:06;97664.94;;;15.78;54.24
48774;BME280;34576;0.000;0.000;2023-01-29T08:44:07;97663.72;;;15.97;55.69
48774;BME280;34576;0.000;0.000;2023-01-29T08:51:07;97664.22;;;16.11;57.07
48774;BME280;34576;0.000;0.000;2023-01-29T08:58:09;97659.34;;;16.20;58.29
48774;BME280;34576;0.000;0.000;2023-01-29T09:05:09;97656.06;;;16.30;58.86
48774;BME280;34576;0.000;0.000;2023-01-29T09:12:10;97679.72;;;15.09;52.39
48774;BME280;34576;0.000;0.000;2023-01-29T09:19:10;97681.50;;;15.97;54.16
48774;BME280;34576;0.000;0.000;2023-01-29T09:26:10;97687.09;;;16.12;55.48
48774;BME280;34576;0.000;0.000;2023-01-29T09:33:10;97700.44;;;16.17;56.58
48774;BME280;34576;0.000;0.000;2023-01-29T09:40:16;97683.09;;;16.27;57.36
48774;BME280;34576;0.000;0.000;2023-01-29T09:47:23;97669.41;;;16.35;58.09
48774;BME280;34576;0.000;0.000;2023-01-29T09:54:25;97662.00;;;16.37;58.74
48774;BME280;34576;0.000;0.000;2023-01-29T10:01:49;97676.41;;;16.41;59.14
48774;BME280;34576;0.000;0.000;2023-01-29T10:16:22;97665.88;;;16.46;59.95
48774;BME280;34576;0.000;0.000;2023-01-29T10:23:29;97659.50;;;16.47;60.21
48774;BME280;34576;0.000;0.000;2023-01-29T10:30:32;97633.59;;;16.54;60.31
48774;BME280;34576;0.000;0.000;2023-01-29T10:37:40;97600.63;;;16.50;60.31
48774;BME280;34576;0.000;0.000;2023-01-29T10:58:49;97565.41;;;16.60;60.79
48774;BME280;34576;0.000;0.000;2023-01-29T11:05:54;97566.47;;;16.59;61.07
48774;BME280;34576;0.000;0.000;2023-01-29T11:12:56;97564.69;;;16.65;61.02
48774;BME280;34576;0.000;0.000;2023-01-29T11:19:58;97559.38;;;16.65;61.19
48774;BME280;34576;0.000;0.000;2023-01-29T11:26:58;97578.00;;;16.65;61.45
48774;BME280;34576;0.000;0.000;2023-01-29T11:34:02;97575.63;;;16.68;61.18
48774;BME280;34576;0.000;0.000;2023-01-29T11:41:09;97571.59;;;16.66;61.38
48774;BME280;34576;0.000;0.000;2023-01-29T11:48:14;97564.13;;;16.63;61.64
48774;BME280;34576;0.000;0.000;2023-01-29T11:55:22;97541.34;;;16.67;61.72
48774;BME280;34576;0.000;0.000;2023-01-29T12:09:25;97541.91;;;16.69;61.93
48774;BME280;34576;0.000;0.000;2023-01-29T12:16:32;97544.56;;;16.69;61.96
48774;BME280;34576;0.000;0.000;2023-01-29T12:23:45;97548.31;;;16.73;62.01
48774;BME280;34576;0.000;0.000;2023-01-29T12:31:04;97531.59;;;16.72;62.00
48774;BME280;34576;0.000;0.000;2023-01-29T12:38:17;97527.06;;;16.73;62.00
48774;BME280;34576;0.000;0.000;2023-01-29T12:45:18;97515.41;;;16.74;61.87
48774;BME280;34576;0.000;0.000;2023-01-29T12:52:22;97521.28;;;16.76;61.98
48774;BME280;34576;0.000;0.000;2023-01-29T13:06:27;97501.16;;;16.80;61.96
48774;BME280;34576;0.000;0.000;2023-01-29T13:13:30;97478.03;;;16.81;61.90
48774;BME280;34576;0.000;0.000;2023-01-29T13:20:32;97489.25;;;13.35;48.29
48774;BME280;34576;0.000;0.000;2023-01-29T13:27:33;97473.22;;;15.82;50.25
48774;BME280;34576;0.000;0.000;2023-01-29T13:34:34;97462.63;;;16.38;52.84
48774;BME280;34576;0.000;0.000;2023-01-29T13:41:37;97446.50;;;16.45;54.53
48774;BME280;34576;0.000;0.000;2023-01-29T13:48:42;97439.09;;;16.47;55.99
48774;BME280;34576;0.000;0.000;2023-01-29T13:55:44;97427.19;;;16.50;56.66
48774;BME280;34576;0.000;0.000;2023-01-29T14:02:44;97407.28;;;16.52;57.16
48774;BME280;34576;0.000;0.000;2023-01-29T14:16:45;97428.88;;;16.56;58.01
48774;BME280;34576;0.000;0.000;2023-01-29T14:23:48;97433.94;;;16.58;58.47
48774;BME280;34576;0.000;0.000;2023-01-29T14:30:50;97435.50;;;16.59;58.58
48774;BME280;34576;0.000;0.000;2023-01-29T14:37:52;97444.31;;;16.59;58.92
48774;BME280;34576;0.000;0.000;2023-01-29T14:51:53;97454.09;;;16.59;59.68
48774;BME280;34576;0.000;0.000;2023-01-29T14:59:04;97464.19;;;16.56;59.49
48774;BME280;34576;0.000;0.000;2023-01-29T15:13:31;97476.34;;;16.52;59.91
48774;BME280;34576;0.000;0.000;2023-01-29T15:20:35;97488.34;;;16.55;59.98
48774;BME280;34576;0.000;0.000;2023-01-29T15:27:36;97501.38;;;16.56;59.82
48774;BME280;34576;0.000;0.000;2023-01-29T15:34:41;97494.16;;;16.52;59.90
48774;BME280;34576;0.000;0.000;2023-01-29T15:41:42;97509.25;;;16.51;59.84
48774;BME280;34576;0.000;0.000;2023-01-29T15:48:42;97509.88;;;16.59;59.70
48774;BME280;34576;0.000;0.000;2023-01-29T15:55:43;97499.13;;;16.48;60.03
48774;BME280;34576;0.000;0.000;2023-01-29T16:02:44;97493.19;;;16.41;60.11
48774;BME280;34576;0.000;0.000;2023-01-29T16:09:44;97501.25;;;16.46;60.07
48774;BME280;34576;0.000;0.000;2023-01-29T16:16:45;97506.53;;;16.46;60.05
48774;BME280;34576;0.000;0.000;2023-01-29T16:23:48;97508.00;;;16.37;60.34
48774;BME280;34576;0.000;0.000;2023-01-29T16:30:58;97512.81;;;16.40;60.18
48774;BME280;34576;0.000;0.000;2023-01-29T16:38:01;97511.53;;;16.43;60.17
48774;BME280;34576;0.000;0.000;2023-01-29T16:45:11;97514.06;;;16.32;60.34
48774;BME280;34576;0.000;0.000;2023-01-29T16:59:28;97492.06;;;16.37;60.21
48774;BME280;34576;0.000;0.000;2023-01-29T17:06:31;97496.63;;;16.42;60.18
48774;BME280;34576;0.000;0.000;2023-01-29T17:13:35;97499.72;;;16.33;60.17
48774;BME280;34576;0.000;0.000;2023-01-29T17:20:37;97506.34;;;16.31;60.29
48774;BME280;34576;0.000;0.000;2023-01-29T17:27:38;97500.53;;;16.34;60.24
48774;BME280;34576;0.000;0.000;2023-01-29T17:34:39;97490.41;;;16.31;60.28
48774;BME280;34576;0.000;0.000;2023-01-29T17:41:39;97498.19;;;16.37;60.06
48774;BME280;34576;0.000;0.000;2023-01-29T17:48:40;97502.56;;;16.27;60.36
48774;BME280;34576;0.000;0.000;2023-01-29T17:55:41;97499.66;;;16.28;60.26
48774;BME280;34576;0.000;0.000;2023-01-29T18:02:41;97514.59;;;16.17;60.65
48774;BME280;34576;0.000;0.000;2023-01-29T18:09:41;97506.91;;;16.16;60.49
48774;BME280;34576;0.000;0.000;2023-01-29T18:16:42;97511.81;;;16.07;60.83
48774;BME280;34576;0.000;0.000;2023-01-29T18:23:42;97508.66;;;16.10;60.67
48774;BME280;34576;0.000;0.000;2023-01-29T18:30:45;97515.91;;;16.32;60.25
48774;BME280;34576;0.000;0.000;2023-01-29T18:37:46;97530.13;;;16.26;60.38
48774;BME280;34576;0.000;0.000;2023-01-29T18:44:46;97528.13;;;16.33;60.09
48774;BME280;34576;0.000;0.000;2023-01-29T18:51:46;97542.53;;;16.20;60.60
48774;BME280;34576;0.000;0.000;2023-01-29T18:58:47;97537.69;;;16.34;59.56
48774;BME280;34576;0.000;0.000;2023-01-29T19:05:47;97538.88;;;16.43;57.38
48774;BME280;34576;0.000;0.000;2023-01-29T19:12:48;97526.19;;;16.45;56.96
48774;BME280;34576;0.000;0.000;2023-01-29T19:19:48;97514.75;;;16.45;56.52
48774;BME280;34576;0.000;0.000;2023-01-29T19:26:48;97522.00;;;16.49;56.43
48774;BME280;34576;0.000;0.000;2023-01-29T19:33:49;97511.63;;;16.48;56.10
48774;BME280;34576;0.000;0.000;2023-01-29T19:40:49;97518.75;;;16.47;56.50
48774;BME280;34576;0.000;0.000;2023-01-29T19:47:50;97518.75;;;16.47;56.29
48774;BME280;34576;0.000;0.000;2023-01-29T19:54:50;97526.66;;;16.42;56.69
48774;BME280;34576;0.000;0.000;2023-01-29T20:01:51;97530.44;;;16.46;56.27
48774;BME280;34576;0.000;0.000;2023-01-29T20:08:51;97529.38;;;16.47;56.16
48774;BME280;34576;0.000;0.000;2023-01-29T20:15:52;97536.06;;;16.50;55.71
48774;BME280;34576;0.000;0.000;2023-01-29T20:22:54;97538.72;;;16.50;55.72
48774;BME280;34576;0.000;0.000;2023-01-29T20:29:54;97532.03;;;16.47;55.52
48774;BME280;34576;0.000;0.000;2023-01-29T20:36:55;97532.84;;;16.48;55.68
48774;BME280;34576;0.000;0.000;2023-01-29T20:43:55;97533.66;;;16.48;55.46
48774;BME280;34576;0.000;0.000;2023-01-29T20:50:55;97534.69;;;16.47;55.48
48774;BME280;34576;0.000;0.000;2023-01-29T20:57:57;97529.38;;;16.47;55.60
48774;BME280;34576;0.000;0.000;2023-01-29T21:04:57;97527.16;;;16.39;56.12
48774;BME280;34576;0.000;0.000;2023-01-29T21:11:57;97519.88;;;16.51;56.50
48774;BME280;34576;0.000;0.000;2023-01-29T21:18:58;97512.53;;;16.59;57.22
48774;BME280;34576;0.000;0.000;2023-01-29T21:26:02;97503.59;;;16.65;57.74
48774;BME280;34576;0.000;0.000;2023-01-29T21:33:03;97513.38;;;16.81;59.11
48774;BME280;34576;0.000;0.000;2023-01-29T21:40:04;97509.41;;;16.84;59.65
48774;BME280;34576;0.000;0.000;2023-01-29T21:47:04;97498.53;;;16.85;60.11
48774;BME280;34576;0.000;0.000;2023-01-29T21:54:11;97500.41;;;16.85;60.95
48774;BME280;34576;0.000;0.000;2023-01-29T22:01:11;97489.06;;;16.89;61.25
48774;BME280;34576;0.000;0.000;2023-01-29T22:08:11;97479.22;;;16.90;61.40
48774;BME280;34576;0.000;0.000;2023-01-29T22:15:12;97467.44;;;16.86;62.24
48774;BME280;34576;0.000;0.000;2023-01-29T22:22:13;97462.13;;;16.86;62.30
48774;BME280;34576;0.000;0.000;2023-01-29T22:29:14;97454.75;;;16.88;62.42
48774;BME280;34576;0.000;0.000;2023-01-29T22:36:18;97444.34;;;16.86;62.71
48774;BME280;34576;0.000;0.000;2023-01-29T22:43:19;97426.53;;;16.87;62.80
48774;BME280;34576;0.000;0.000;2023-01-29T22:50:19;97441.22;;;16.89;62.72
48774;BME280;34576;0.000;0.000;2023-01-29T22:57:19;97434.09;;;16.95;63.27
48774;BME280;34576;0.000;0.000;2023-01-29T23:04:20;97436.75;;;16.95;63.50
48774;BME280;34576;0.000;0.000;2023-01-29T23:11:20;97433.34;;;17.00;63.39
48774;BME280;34576;0.000;0.000;2023-01-29T23:18:22;97436.56;;;17.02;63.97
48774;BME280;34576;0.000;0.000;2023-01-29T23:25:22;97434.72;;;17.02;64.12
48774;BME280;34576;0.000;0.000;2023-01-29T23:32:43;97438.72;;;17.05;64.46
48774;BME280;34576;0.000;0.000;2023-01-29T23:39:43;97441.38;;;17.05;64.91
48774;BME280;34576;0.000;0.000;2023-01-29T23:46:43;97431.03;;;17.08;65.00
48774;BME280;34576;0.000;0.000;2023-01-29T23:53:43;97408.97;;;17.08;65.44
